createdAt,value
2022-10-07T00:01:22.954Z,100750.81
2022-10-07T00:03:51.477Z,100735.09
2022-10-07T00:06:21.676Z,100735.09
2022-10-07T00:08:53.207Z,100735.94
2022-10-07T00:11:24.108Z,100729.00
2022-10-07T00:13:54.457Z,100725.44
2022-10-07T00:16:25.520Z,100719.34
2022-10-07T00:18:56.716Z,100724.50
2022-10-07T00:21:26.257Z,100732.16
2022-10-07T00:23:56.366Z,100736.56
2022-10-07T00:26:27.616Z,100719.25
2022-10-07T00:28:56.606Z,100721.88
2022-10-07T00:31:28.138Z,100720.28
2022-10-07T00:33:57.867Z,100721.16
2022-10-07T00:36:28.337Z,100712.41
2022-10-07T00:38:59.817Z,100710.47
2022-10-07T00:41:30.560Z,100714.19
2022-10-07T00:43:59.767Z,100703.91
2022-10-07T00:46:33.299Z,100710.84
2022-10-07T00:49:06.294Z,100716.28
2022-10-07T00:51:36.677Z,100713.34
2022-10-07T00:54:14.107Z,100708.22
2022-10-07T00:56:43.859Z,100703.91
2022-10-07T00:59:13.649Z,100701.91
2022-10-07T01:01:42.590Z,100699.50
2022-10-07T01:04:12.207Z,100697.09
2022-10-07T01:06:41.527Z,100700.38
2022-10-07T01:09:13.678Z,100695.50
2022-10-07T01:11:57.537Z,100694.56
2022-10-07T01:14:40.181Z,100691.09
2022-10-07T01:17:12.710Z,100683.03
2022-10-07T01:19:57.077Z,100675.06
2022-10-07T01:22:38.289Z,100670.75
2022-10-07T01:25:26.709Z,100664.06
2022-10-07T01:28:02.634Z,100663.84
2022-10-07T01:30:33.628Z,100661.13
2022-10-07T01:33:07.311Z,100657.78
2022-10-07T01:35:38.829Z,100652.63
2022-10-07T01:38:12.790Z,100646.72
2022-10-07T01:40:46.401Z,100641.56
2022-10-07T01:43:19.429Z,100630.38
2022-10-07T01:45:49.505Z,100624.16
2022-10-07T01:48:18.079Z,100627.44
2022-10-07T01:50:47.530Z,100625.63
2022-10-07T01:53:32.409Z,100620.50
2022-10-07T01:56:21.399Z,100618.84
2022-10-07T01:59:18.815Z,100619.56
2022-10-07T02:01:54.559Z,100615.91
2022-10-07T02:04:49.643Z,100603.84
2022-10-07T02:07:33.726Z,100594.28
2022-10-07T02:10:13.959Z,100589.81
2022-10-07T02:12:49.419Z,100585.81
2022-10-07T02:15:25.331Z,100586.50
2022-10-07T02:17:57.058Z,100571.75
2022-10-07T02:20:28.169Z,100579.41
2022-10-07T02:23:00.026Z,100563.03
2022-10-07T02:25:32.759Z,100548.06
2022-10-07T02:28:03.857Z,100541.94
2022-10-07T02:30:35.069Z,100531.47
2022-10-07T02:33:07.752Z,100527.09
2022-10-07T02:35:42.050Z,100520.88
2022-10-07T02:38:13.960Z,100508.53
2022-10-07T02:40:47.209Z,100509.56
2022-10-07T02:43:21.790Z,100509.56
2022-10-07T02:46:00.653Z,100510.50
2022-10-07T02:48:34.689Z,100496.47
2022-10-07T02:51:08.000Z,100494.56
2022-10-07T02:53:41.640Z,100483.22
2022-10-07T02:56:10.620Z,100489.84
2022-10-07T02:58:45.100Z,100478.81
2022-10-07T03:01:19.479Z,100471.28
2022-10-07T03:03:48.343Z,100481.25
2022-10-07T03:06:20.372Z,100477.91
2022-10-07T03:08:49.410Z,100482.19
2022-10-07T03:11:17.951Z,100472.88
2022-10-07T03:13:46.950Z,100477.47
2022-10-07T03:16:17.097Z,100468.53
2022-10-07T03:18:46.521Z,100459.13
2022-10-07T03:21:16.472Z,100462.66
2022-10-07T03:23:45.081Z,100454.59
2022-10-07T03:26:13.670Z,100446.84
2022-10-07T03:28:42.330Z,100455.63
2022-10-07T03:31:13.045Z,100456.59
2022-10-07T03:33:43.069Z,100455.00
2022-10-07T03:36:11.630Z,100448.94
2022-10-07T03:38:40.149Z,100440.13
2022-10-07T03:41:08.729Z,100435.63
2022-10-07T03:43:37.973Z,100427.88
2022-10-07T03:46:06.851Z,100437.28
2022-10-07T03:48:35.539Z,100423.34
2022-10-07T03:51:05.800Z,100428.72
2022-10-07T03:53:34.371Z,100427.00
2022-10-07T03:56:02.970Z,100425.13
2022-10-07T03:58:31.555Z,100423.47
2022-10-07T04:01:10.500Z,100416.53
2022-10-07T04:03:39.020Z,100415.28
2022-10-07T04:06:09.641Z,100421.78
2022-10-07T04:08:39.280Z,100409.41
2022-10-07T04:11:07.960Z,100408.47
2022-10-07T04:13:36.489Z,100406.78
2022-10-07T04:16:09.075Z,100400.72
2022-10-07T04:18:37.724Z,100401.53
2022-10-07T04:21:06.839Z,100382.44
2022-10-07T04:23:37.340Z,100386.16
2022-10-07T04:26:09.497Z,100390.44
2022-10-07T04:28:38.528Z,100391.28
2022-10-07T04:31:09.059Z,100386.03
2022-10-07T04:33:40.803Z,100393.16
2022-10-07T04:36:10.760Z,100386.97
2022-10-07T04:38:42.849Z,100385.28
2022-10-07T04:41:11.399Z,100385.28
2022-10-07T04:43:39.929Z,100389.69
2022-10-07T04:46:11.060Z,100377.53
2022-10-07T04:48:39.579Z,100381.00
2022-10-07T04:51:09.759Z,100383.63
2022-10-07T04:53:40.830Z,100378.59
2022-10-07T04:56:11.480Z,100379.53
2022-10-07T04:58:40.002Z,100373.13
2022-10-07T05:01:11.556Z,100371.69
2022-10-07T05:03:41.349Z,100351.66
2022-10-07T05:06:10.300Z,100344.00
2022-10-07T05:08:40.259Z,100357.00
2022-10-07T05:11:08.810Z,100351.75
2022-10-07T05:13:39.629Z,100352.59
2022-10-07T05:16:10.010Z,100357.81
2022-10-07T05:18:39.760Z,100357.81
2022-10-07T05:21:11.810Z,100364.84
2022-10-07T05:23:41.829Z,100370.84
2022-10-07T05:26:14.480Z,100362.84
2022-10-07T05:28:44.733Z,100359.41
2022-10-07T05:31:15.063Z,100356.56
2022-10-07T05:33:44.570Z,100349.53
2022-10-07T05:36:13.170Z,100349.75
2022-10-07T05:38:43.280Z,100320.31
2022-10-07T05:41:13.149Z,100334.44
2022-10-07T05:43:43.550Z,100342.31
2022-10-07T05:46:15.046Z,100342.53
2022-10-07T05:48:47.600Z,100354.91
2022-10-07T05:51:17.590Z,100359.81
2022-10-07T05:53:49.523Z,100355.63
2022-10-07T05:56:20.610Z,100363.19
2022-10-07T05:58:52.210Z,100349.13
2022-10-07T06:01:22.572Z,100357.94
2022-10-07T06:03:52.670Z,100359.63
2022-10-07T06:06:21.689Z,100358.66
2022-10-07T06:08:52.349Z,100357.63
2022-10-07T06:11:38.389Z,100349.97
2022-10-07T06:14:06.973Z,100360.44
2022-10-07T06:16:35.673Z,100359.72
2022-10-07T06:19:04.270Z,100354.91
2022-10-07T06:21:32.790Z,100363.41
2022-10-07T06:24:02.795Z,100359.00
2022-10-07T06:26:31.399Z,100348.50
2022-10-07T06:29:00.061Z,100359.72
2022-10-07T06:31:28.579Z,100366.03
2022-10-07T06:33:57.101Z,100364.31
2022-10-07T06:36:25.579Z,100372.09
2022-10-07T06:38:55.999Z,100374.50
2022-10-07T06:41:26.199Z,100393.59
2022-10-07T06:43:57.871Z,100399.75
2022-10-07T06:46:26.562Z,100398.50
2022-10-07T06:48:55.299Z,100407.53
2022-10-07T06:51:25.982Z,100378.28
2022-10-07T06:53:58.451Z,100369.16
2022-10-07T06:56:28.586Z,100372.63
2022-10-07T06:58:57.118Z,100364.13
2022-10-07T07:01:25.771Z,100351.75
2022-10-07T07:03:57.409Z,100357.81
2022-10-07T07:06:26.209Z,100358.03
2022-10-07T07:09:05.566Z,100362.88
2022-10-07T07:11:44.474Z,100362.88
2022-10-07T07:14:14.570Z,100365.69
2022-10-07T07:16:46.363Z,100376.81
2022-10-07T07:19:17.719Z,100372.16
2022-10-07T07:21:50.627Z,100374.38
2022-10-07T07:24:21.108Z,100370.41
2022-10-07T07:26:51.688Z,100371.31
2022-10-07T07:29:20.710Z,100375.50
2022-10-07T07:31:50.119Z,100372.69
2022-10-07T07:34:18.730Z,100373.94
2022-10-07T07:36:48.932Z,100390.28
2022-10-07T07:39:19.519Z,100380.75
2022-10-07T07:41:51.072Z,100391.34
2022-10-07T07:44:25.369Z,100395.66
2022-10-07T07:46:54.029Z,100397.31
2022-10-07T07:49:26.179Z,100418.41
2022-10-07T07:51:59.718Z,100433.16
2022-10-07T07:54:30.821Z,100440.06
2022-10-07T07:57:02.240Z,100435.91
2022-10-07T07:59:35.320Z,100439.34
2022-10-07T08:02:08.159Z,100435.78
2022-10-07T08:04:41.028Z,100434.13
2022-10-07T08:07:13.359Z,100435.25
2022-10-07T08:09:46.579Z,100433.28
2022-10-07T08:12:21.307Z,100432.41
2022-10-07T08:14:52.522Z,100437.66
2022-10-07T08:17:22.359Z,100432.63
2022-10-07T08:19:54.839Z,100436.19
2022-10-07T08:22:42.390Z,100436.31
2022-10-07T08:25:14.223Z,100438.72
2022-10-07T08:27:43.172Z,100448.78
2022-10-07T08:30:16.722Z,100450.38
2022-10-07T08:32:46.139Z,100441.84
2022-10-07T08:35:14.819Z,100445.22
2022-10-07T08:37:43.785Z,100446.94
2022-10-07T08:40:21.179Z,100445.13
2022-10-07T08:42:49.879Z,100450.56
2022-10-07T08:45:29.599Z,100444.09
2022-10-07T08:48:00.930Z,100446.63
2022-10-07T08:50:36.190Z,100452.59
2022-10-07T08:53:08.739Z,100459.31
2022-10-07T08:55:42.259Z,100463.50
2022-10-07T08:58:44.368Z,100462.78
2022-10-07T09:01:26.207Z,100462.56
2022-10-07T09:04:05.840Z,100472.94
2022-10-07T09:06:39.668Z,100480.72
2022-10-07T09:09:14.530Z,100483.97
2022-10-07T09:11:47.129Z,100489.94
2022-10-07T09:14:26.521Z,100480.50
2022-10-07T09:17:02.448Z,100480.41
2022-10-07T09:19:36.489Z,100484.69
2022-10-07T09:22:13.352Z,100481.22
2022-10-07T09:27:17.598Z,100483.84
2022-10-07T09:29:46.669Z,100479.44
2022-10-07T09:32:19.388Z,100454.50
2022-10-07T09:34:48.333Z,100458.69
2022-10-07T09:37:21.118Z,100455.13
2022-10-07T09:39:51.779Z,100472.44
2022-10-07T09:42:36.908Z,100476.63
2022-10-07T09:45:20.209Z,100463.50
2022-10-07T09:47:56.008Z,100460.47
2022-10-07T09:50:43.245Z,100465.84
2022-10-07T09:53:20.520Z,100461.22
2022-10-07T09:55:50.129Z,100461.13
2022-10-07T09:58:22.328Z,100466.88
2022-10-07T10:00:52.682Z,100461.63
2022-10-07T10:03:29.857Z,100457.53
2022-10-07T10:06:00.528Z,100464.38
2022-10-07T10:08:32.738Z,100464.78
2022-10-07T10:11:02.939Z,100458.91
2022-10-07T10:13:36.902Z,100465.50
2022-10-07T10:16:07.757Z,100464.56
2022-10-07T10:18:39.519Z,100480.09
2022-10-07T10:21:25.528Z,100476.22
2022-10-07T10:23:54.638Z,100470.84
2022-10-07T10:26:48.728Z,100471.81
2022-10-07T10:29:38.648Z,100462.03
2022-10-07T10:32:38.609Z,100466.22
2022-10-07T10:35:20.132Z,100479.53
2022-10-07T10:38:02.009Z,100483.84
2022-10-07T10:40:36.989Z,100478.69
2022-10-07T10:43:22.128Z,100476.19
2022-10-07T10:46:06.824Z,100482.06
2022-10-07T10:48:43.918Z,100487.09
2022-10-07T10:51:32.249Z,100488.16
2022-10-07T10:54:14.818Z,100492.44
2022-10-07T10:56:52.670Z,100489.59
2022-10-07T10:59:34.628Z,100490.34
2022-10-07T11:02:17.925Z,100498.97
2022-10-07T11:04:50.349Z,100504.22
2022-10-07T11:07:25.578Z,100503.78
2022-10-07T11:09:58.930Z,100510.50
2022-10-07T11:12:40.578Z,100502.50
2022-10-07T11:15:29.969Z,100500.63
2022-10-07T11:18:05.629Z,100503.88
2022-10-07T11:20:48.710Z,100504.50
2022-10-07T11:23:29.120Z,100490.53
2022-10-07T11:26:05.549Z,100501.78
2022-10-07T11:28:39.352Z,100497.97
2022-10-07T11:31:15.978Z,100499.75
2022-10-07T11:33:55.209Z,100496.09
2022-10-07T11:36:32.909Z,100500.16
2022-10-07T11:39:03.152Z,100507.47
2022-10-07T11:41:50.351Z,100496.69
2022-10-07T11:44:31.918Z,100498.22
2022-10-07T11:47:06.251Z,100499.63
2022-10-07T11:49:42.959Z,100502.19
2022-10-07T11:52:23.660Z,100506.53
2022-10-07T11:55:02.229Z,100506.53
2022-10-07T11:57:37.458Z,100520.63
2022-10-07T12:00:08.792Z,100540.13
2022-10-07T12:02:46.681Z,100548.97
2022-10-07T12:05:59.600Z,100548.88
2022-10-07T12:08:33.399Z,100551.09
2022-10-07T12:11:44.559Z,100565.28
2022-10-07T12:14:41.879Z,100546.41
2022-10-07T12:17:28.398Z,100538.84
2022-10-07T12:20:33.749Z,100546.50
2022-10-07T12:23:47.585Z,100538.09
2022-10-07T12:26:52.341Z,100535.94
2022-10-07T12:29:58.870Z,100532.13
2022-10-07T12:33:01.249Z,100525.63
2022-10-07T12:35:54.340Z,100518.97
2022-10-07T12:38:28.849Z,100526.41
2022-10-07T12:41:13.121Z,100521.66
2022-10-07T12:43:53.690Z,100529.22
2022-10-07T12:46:25.949Z,100539.16
2022-10-07T12:49:01.900Z,100540.34
2022-10-07T12:51:39.761Z,100545.06
2022-10-07T12:54:18.499Z,100546.03
2022-10-07T12:56:47.329Z,100549.72
2022-10-07T12:59:47.915Z,100546.38
2022-10-07T13:02:54.713Z,100549.09
2022-10-07T13:06:11.809Z,100538.69
2022-10-07T13:09:13.929Z,100532.56
2022-10-07T13:12:17.790Z,100522.25
2022-10-07T13:15:00.382Z,100528.53
2022-10-07T13:17:42.339Z,100532.31
2022-10-07T13:20:39.381Z,100528.13
2022-10-07T13:23:16.270Z,100531.25
2022-10-07T13:25:47.039Z,100525.69
2022-10-07T13:28:17.865Z,100531.56
2022-10-07T13:30:47.769Z,100529.19
2022-10-07T13:33:22.509Z,100525.97
2022-10-07T13:35:51.530Z,100528.50
2022-10-07T13:38:30.499Z,100526.94
2022-10-07T13:41:03.899Z,100526.72
2022-10-07T13:43:34.809Z,100524.00
2022-10-07T13:46:05.376Z,100527.22
2022-10-07T13:48:43.042Z,100527.34
2022-10-07T13:51:24.949Z,100518.75
2022-10-07T13:53:58.400Z,100516.03
2022-10-07T13:56:32.049Z,100523.47
2022-10-07T13:59:01.260Z,100518.06
2022-10-07T14:01:32.337Z,100523.94
2022-10-07T14:04:10.409Z,100532.56
2022-10-07T14:06:49.728Z,100533.84
2022-10-07T14:09:28.399Z,100535.03
2022-10-07T14:11:59.449Z,100543.75
2022-10-07T14:14:32.920Z,100547.22
2022-10-07T14:17:01.453Z,100551.31
2022-10-07T14:19:33.814Z,100547.81
2022-10-07T14:22:04.640Z,100555.25
2022-10-07T14:24:34.549Z,100549.66
2022-10-07T14:27:04.779Z,100543.56
2022-10-07T14:29:37.959Z,100545.47
2022-10-07T14:32:35.504Z,100545.00
2022-10-07T14:35:20.294Z,100535.44
2022-10-07T14:37:49.565Z,100537.84
2022-10-07T14:40:22.784Z,100540.59
2022-10-07T14:42:53.956Z,100544.28
2022-10-07T14:45:24.015Z,100539.38
2022-10-07T14:47:52.684Z,100550.97
2022-10-07T14:50:21.184Z,100557.28
2022-10-07T14:52:52.395Z,100558.56
2022-10-07T14:55:26.187Z,100569.97
2022-10-07T14:57:55.554Z,100564.06
2022-10-07T15:00:27.787Z,100568.00
2022-10-07T15:02:57.394Z,100560.22
2022-10-07T15:05:34.085Z,100561.41
2022-10-07T15:08:02.766Z,100554.13
2022-10-07T15:10:33.586Z,100556.44
2022-10-07T15:13:03.834Z,100559.22
2022-10-07T15:15:33.125Z,100561.72
2022-10-07T15:18:01.593Z,100561.25
2022-10-07T15:20:30.134Z,100566.06
2022-10-07T15:23:06.765Z,100560.56
2022-10-07T15:25:42.835Z,100559.13
2022-10-07T15:28:11.711Z,100572.16
2022-10-07T15:30:40.270Z,100576.34
2022-10-07T15:33:08.885Z,100577.56
2022-10-07T15:35:37.475Z,100573.63
2022-10-07T15:38:06.025Z,100575.53
2022-10-07T15:40:36.054Z,100574.81
2022-10-07T15:43:04.804Z,100576.63
2022-10-07T15:45:36.426Z,100582.34
2022-10-07T15:48:05.884Z,100594.16
2022-10-07T15:50:34.384Z,100603.16
2022-10-07T15:53:03.117Z,100600.06
2022-10-07T15:55:33.836Z,100605.97
2022-10-07T15:58:03.784Z,100604.91
2022-10-07T16:00:32.319Z,100612.34
2022-10-07T16:03:03.534Z,100604.00
2022-10-07T16:05:32.554Z,100617.53
2022-10-07T16:08:03.088Z,100618.91
2022-10-07T16:10:31.674Z,100617.31
2022-10-07T16:13:00.184Z,100621.59
2022-10-07T16:15:30.845Z,100631.22
2022-10-07T16:17:59.284Z,100640.63
2022-10-07T16:20:28.186Z,100635.31
2022-10-07T16:22:56.835Z,100633.53
2022-10-07T16:25:25.335Z,100638.59
2022-10-07T16:28:10.977Z,100642.47
2022-10-07T16:30:49.366Z,100651.63
2022-10-07T16:33:19.307Z,100639.13
2022-10-07T16:35:47.840Z,100640.78
2022-10-07T16:38:16.444Z,100651.09
2022-10-07T16:40:53.926Z,100641.78
2022-10-07T16:43:22.503Z,100645.22
2022-10-07T16:45:52.474Z,100652.22
2022-10-07T16:48:21.397Z,100653.25
2022-10-07T16:50:50.526Z,100657.00
2022-10-07T16:53:19.105Z,100673.00
2022-10-07T16:55:47.614Z,100669.69
2022-10-07T16:58:16.184Z,100671.84
2022-10-07T17:00:44.694Z,100678.38
2022-10-07T17:03:14.624Z,100681.44
2022-10-07T17:05:43.068Z,100678.44
2022-10-07T17:08:11.834Z,100677.91
2022-10-07T17:10:42.914Z,100681.63
2022-10-07T17:13:11.514Z,100680.84
2022-10-07T17:15:41.498Z,100690.13
2022-10-07T17:18:10.224Z,100688.31
2022-10-07T17:20:40.665Z,100697.59
2022-10-07T17:23:09.206Z,100707.69
2022-10-07T17:25:39.046Z,100707.03
2022-10-07T17:28:07.996Z,100713.59
2022-10-07T17:30:36.534Z,100724.09
2022-10-07T17:33:05.348Z,100731.25
2022-10-07T17:35:34.053Z,100740.50
2022-10-07T17:38:06.124Z,100736.59
2022-10-07T17:40:36.186Z,100735.03
2022-10-07T17:43:07.759Z,100745.09
2022-10-07T17:45:36.575Z,100744.56
2022-10-07T17:48:05.575Z,100747.63
2022-10-07T17:50:38.345Z,100750.25
2022-10-07T17:53:08.884Z,100745.53
2022-10-07T17:55:37.924Z,100756.66
2022-10-07T17:58:06.445Z,100755.25
2022-10-07T18:00:35.150Z,100762.31
2022-10-07T18:03:03.724Z,100771.41
2022-10-07T18:05:32.714Z,100768.16
2022-10-07T18:08:01.240Z,100780.66
2022-10-07T18:10:31.812Z,100783.44
2022-10-07T18:13:17.325Z,100786.47
2022-10-07T18:15:45.845Z,100783.19
2022-10-07T18:18:15.814Z,100786.94
2022-10-07T18:20:44.914Z,100798.41
2022-10-07T18:23:13.634Z,100795.13
2022-10-07T18:25:44.427Z,100801.84
2022-10-07T18:28:13.423Z,100805.41
2022-10-07T18:30:42.004Z,100805.91
2022-10-07T18:33:10.535Z,100808.59
2022-10-07T18:35:39.125Z,100816.56
2022-10-07T18:38:07.714Z,100819.28
2022-10-07T18:40:36.266Z,100826.69
2022-10-07T18:43:06.304Z,100832.69
2022-10-07T18:45:34.788Z,100835.59
2022-10-07T18:48:03.347Z,100836.06
2022-10-07T18:50:33.752Z,100842.69
2022-10-07T18:53:02.400Z,100851.00
2022-10-07T18:55:31.014Z,100852.22
2022-10-07T18:57:59.585Z,100860.56
2022-10-07T19:00:30.193Z,100859.03
2022-10-07T19:02:59.124Z,100864.41
2022-10-07T19:05:33.829Z,100869.16
2022-10-07T19:08:39.074Z,100866.84
2022-10-07T19:11:16.489Z,100865.31
2022-10-07T19:13:54.775Z,100872.50
2022-10-07T19:16:27.804Z,100872.63
2022-10-07T19:19:04.654Z,100879.16
2022-10-07T19:21:37.284Z,100883.47
2022-10-07T19:24:06.200Z,100880.00
2022-10-07T19:26:37.669Z,100888.22
2022-10-07T19:29:09.291Z,100890.78
2022-10-07T19:31:42.513Z,100891.91
2022-10-07T19:34:13.014Z,100904.25
2022-10-07T19:36:59.635Z,100896.31
2022-10-07T19:39:36.165Z,100908.41
2022-10-07T19:42:06.845Z,100907.44
2022-10-07T19:44:37.117Z,100900.34
2022-10-07T19:47:07.399Z,100905.50
2022-10-07T19:49:38.781Z,100911.22
2022-10-07T19:52:07.295Z,100917.81
2022-10-07T19:54:39.955Z,100920.91
2022-10-07T19:57:08.415Z,100928.66
2022-10-07T19:59:37.115Z,100927.91
2022-10-07T20:02:08.717Z,100935.59
2022-10-07T20:04:38.424Z,100937.75
2022-10-07T20:07:06.965Z,100945.63
2022-10-07T20:09:36.128Z,100945.16
2022-10-07T20:12:05.067Z,100943.00
2022-10-07T20:14:36.144Z,100956.09
2022-10-07T20:17:05.320Z,100956.69
2022-10-07T20:19:35.775Z,100957.34
2022-10-07T20:22:04.245Z,100949.28
2022-10-07T20:24:34.261Z,100953.13
2022-10-07T20:29:58.644Z,100965.94
2022-10-07T20:32:29.155Z,100970.16
2022-10-07T20:34:59.104Z,100969.31
2022-10-07T20:37:28.094Z,100981.97
2022-10-07T20:40:13.910Z,100984.50
2022-10-07T20:42:46.798Z,100987.50
2022-10-07T20:45:18.574Z,100992.09
2022-10-07T20:47:47.595Z,100998.75
2022-10-07T20:50:17.694Z,100992.66
2022-10-07T20:52:46.519Z,101003.63
2022-10-07T20:55:15.465Z,101003.22
2022-10-07T20:57:44.216Z,101010.38
2022-10-07T21:00:16.590Z,101014.19
2022-10-07T21:02:54.191Z,101014.78
2022-10-07T21:05:38.636Z,101026.19
2022-10-07T21:08:08.144Z,101028.56
2022-10-07T21:10:36.799Z,101030.41
2022-10-07T21:13:05.595Z,101030.78
2022-10-07T21:15:38.414Z,101033.59
2022-10-07T21:18:07.441Z,101033.75
2022-10-07T21:20:37.500Z,101032.28
2022-10-07T21:23:06.222Z,101038.16
2022-10-07T21:25:35.126Z,101040.72
2022-10-07T21:28:03.787Z,101043.69
2022-10-07T21:30:33.206Z,101049.03
2022-10-07T21:33:01.972Z,101039.84
2022-10-07T21:35:33.277Z,101044.25
2022-10-07T21:38:04.824Z,101043.47
2022-10-07T21:40:34.726Z,101051.34
2022-10-07T21:43:08.474Z,101057.88
2022-10-07T21:45:48.330Z,101057.88
2022-10-07T21:48:21.135Z,101059.66
2022-10-07T21:50:57.201Z,101061.69
2022-10-07T21:53:28.924Z,101062.00
2022-10-07T21:55:58.234Z,101069.16
2022-10-07T21:58:28.204Z,101066.03
2022-10-07T22:01:18.608Z,101068.91
2022-10-07T22:03:48.217Z,101065.22
2022-10-07T22:06:19.424Z,101067.75
2022-10-07T22:08:51.006Z,101059.38
2022-10-07T22:11:22.770Z,101058.19
2022-10-07T22:13:55.494Z,101068.41
2022-10-07T22:16:32.712Z,101071.22
2022-10-07T22:19:07.315Z,101075.09
2022-10-07T22:21:42.940Z,101074.19
2022-10-07T22:24:18.220Z,101079.66
2022-10-07T22:26:53.114Z,101080.88
2022-10-07T22:29:24.845Z,101089.47
2022-10-07T22:31:56.545Z,101092.34
2022-10-07T22:34:43.044Z,101098.34
2022-10-07T22:37:12.540Z,101096.06
2022-10-07T22:39:42.585Z,101098.84
2022-10-07T22:42:11.229Z,101105.78
2022-10-07T22:44:39.846Z,101104.94
2022-10-07T22:47:08.384Z,101106.53
2022-10-07T22:49:37.125Z,101107.31
2022-10-07T22:52:05.694Z,101117.00
2022-10-07T22:54:34.164Z,101108.97
2022-10-07T22:57:07.278Z,101106.53
2022-10-07T22:59:37.286Z,101108.31
2022-10-07T23:02:06.031Z,101111.69
2022-10-07T23:04:35.054Z,101109.75
2022-10-07T23:07:04.079Z,101115.41
2022-10-07T23:09:32.699Z,101122.00
2022-10-07T23:12:01.429Z,101114.03
2022-10-07T23:14:31.479Z,101127.81
2022-10-07T23:17:02.514Z,101126.06
2022-10-07T23:19:31.245Z,101127.06
2022-10-07T23:22:00.464Z,101120.16
2022-10-07T23:24:29.514Z,101120.38
2022-10-07T23:26:58.254Z,101123.66
2022-10-07T23:29:27.694Z,101116.75
2022-10-07T23:31:59.124Z,101118.75
2022-10-07T23:34:27.875Z,101123.84
2022-10-07T23:36:56.555Z,101130.00
2022-10-07T23:39:25.445Z,101133.41
2022-10-07T23:41:53.954Z,101136.34
2022-10-07T23:44:24.416Z,101137.25
2022-10-07T23:46:53.583Z,101147.03
2022-10-07T23:49:23.605Z,101141.97
2022-10-07T23:51:52.077Z,101143.66
2022-10-07T23:54:20.614Z,101140.34
2022-10-07T23:56:49.544Z,101148.19
2022-10-07T23:59:18.246Z,101145.59
